Aeroporto :
LOGIN :

Iscrizione | Disclaimer

   EN    FR    IT 

 










Sommario :    VFR   VFR Marginale   IFR   IFR Intensivo   IFR Molto Intensivo
Visibilità : 
Base nubi : 
>= 8 km
>= 3000ft
5 / 8 km
1000 / 3000 ft
1500m / 5 km
500 / 1000 ft
800 / 1500m
200 / 500 ft
< 800m
< 200 ft
Simboli :   Temporali  Nebbia  Neve Forte  Precipitazioni Forti  Vento > 20 kt
SIGMETs :   Varie  Temporali  Ghiacco  Turbolenza  Onda orograficha  Ceneri Vulcaniche






- Altitudine del aeroporto : 290 ft
- Codice IATA : OSI


LDOS - Osijek

ULTIMO METAR :
  • 150730Z 13009KT 3000 BR BKN007 OVC013 10/09 Q1013

METARs OBSOLETI :
  • 150700Z 13008KT 2000 BR BKN003 OVC010 10/09 Q1013
  • 150630Z 14008KT 3000 BR BKN005 OVC013 10/09 Q1012
  • 150600Z 12006KT 5000 BR BKN007 OVC015 10/09 Q1012
  • 150530Z 14004KT 4500 BR BKN007 OVC013 10/09 Q1012
  • 150500Z 13007KT 8000 SCT007 OVC015 10/09 Q1012

TAF TAF LDOS
Valido dal 15 a 06 ore il 16 a 06 ore UTC


150525Z 1506/1606 15006KT 7000 OVC016 TX16/1513Z TN10/1506Z
PROB30
TEMPO 1506/1509 4000 BR OVC007
BECMG 1509/1511 12012KT CAVOK
PROB30
TEMPO 1521/1604 14015G25KT



MetMap, La meteo Aeronautica in un colpo d'occhio ! - Copyright ORBIFLY Dicembre 2007 - Disclaimer

ORBIFLY MET'MAP TEAM :

Programmazione e sviluppo : Alexandra Zaïnal
Concezione e sviluppo : Baudouin d'Aumeries
Co-Programmazione e sviluppo : Marc-Olivier Méhu
Supporto tecnico e logistico : Manuel Goepfert
Aiuto per la traduzione : Arnaldo La Scala

Contatto : metmap@orbifly.com




FONTI E CREDITI :

   NOAA